Time;durP1;ratioP1;P1;durP2;ratioP2;P2;SDS_P1;SDS_P2;PMS_P1;PMS_P2;Temp;Humidity;BMP_temperature;BMP_pressure;BME280_temperature;BME280_humidity;BME280_pressure;Samples;Min_cycle;Max_cycle;Signal;HPM_P1;HPM_P2
2022/07/24 00:01:23;;;;;;;4.23;3.50;;;18.80;99.90;;;;;;5007104;28;20209;-69
2022/07/24 00:03:49;;;;;;;5.73;3.10;;;18.80;99.90;;;;;;5007071;28;20230;-69
2022/07/24 00:06:16;;;;;;;3.60;3.30;;;18.70;99.90;;;;;;5006872;28;20652;-69
2022/07/24 00:08:43;;;;;;;3.63;2.80;;;18.70;99.90;;;;;;5013260;28;20208;-69
2022/07/24 00:11:10;;;;;;;3.93;2.30;;;18.70;99.90;;;;;;5026684;28;20578;-69
2022/07/24 00:13:38;;;;;;;2.83;2.63;;;18.60;99.90;;;;;;5026591;28;20221;-69
2022/07/24 00:16:08;;;;;;;2.13;2.00;;;18.60;99.90;;;;;;5026234;28;20559;-69
2022/07/24 00:18:35;;;;;;;2.20;2.00;;;18.60;99.90;;;;;;5022793;28;20216;-69
2022/07/24 00:21:05;;;;;;;3.23;2.10;;;18.50;99.90;;;;;;5026101;28;20754;-69
2022/07/24 00:23:32;;;;;;;3.00;1.77;;;18.40;99.90;;;;;;5026252;28;20205;-69
2022/07/24 00:25:59;;;;;;;2.70;1.90;;;18.40;99.90;;;;;;5026102;28;20574;-69
2022/07/24 00:28:26;;;;;;;2.27;2.07;;;18.40;99.90;;;;;;5018185;28;20206;-69
2022/07/24 00:30:54;;;;;;;2.07;1.93;;;18.30;99.90;;;;;;5006534;28;20202;-69
2022/07/24 00:33:21;;;;;;;2.00;1.60;;;18.30;99.90;;;;;;5006302;28;20676;-69
2022/07/24 00:35:47;;;;;;;2.90;1.90;;;18.30;99.90;;;;;;5006568;28;20210;-69
2022/07/24 00:38:14;;;;;;;2.03;1.77;;;18.30;99.90;;;;;;5006170;28;20256;-69
2022/07/24 00:40:41;;;;;;;2.07;1.87;;;18.30;99.90;;;;;;5006488;28;20219;-69
2022/07/24 00:43:11;;;;;;;1.90;1.80;;;18.30;99.90;;;;;;5006584;28;20208;-69
2022/07/24 00:45:37;;;;;;;2.53;1.60;;;18.20;99.90;;;;;;5006499;28;20240;-69
2022/07/24 00:48:06;;;;;;;3.07;2.07;;;18.20;99.90;;;;;;5009802;28;20208;-69
2022/07/24 00:50:33;;;;;;;3.27;2.00;;;18.20;99.90;;;;;;5026208;28;20193;-69
2022/07/24 00:53:00;;;;;;;1.70;1.60;;;18.20;99.90;;;;;;5025581;28;20212;-69
2022/07/24 00:55:28;;;;;;;3.30;1.47;;;18.10;99.90;;;;;;5025530;28;20659;-69
2022/07/24 00:57:55;;;;;;;1.60;1.50;;;18.10;99.90;;;;;;5025782;28;20666;-69
2022/07/24 01:00:22;;;;;;;1.50;1.40;;;18.10;99.90;;;;;;5026204;28;20205;-69
2022/07/24 01:02:50;;;;;;;2.00;1.30;;;18.10;99.90;;;;;;5025724;28;20199;-69
2022/07/24 01:05:19;;;;;;;2.40;1.40;;;18.00;99.90;;;;;;5026046;28;20239;-69
2022/07/24 01:07:46;;;;;;;1.30;1.30;;;17.90;99.90;;;;;;5016701;28;20212;-69
2022/07/24 01:10:13;;;;;;;1.23;1.13;;;17.80;99.90;;;;;;5014868;28;20202;-69
2022/07/24 01:12:42;;;;;;;1.90;1.20;;;17.70;99.90;;;;;;5019710;28;20228;-69
2022/07/24 01:15:11;;;;;;;2.13;1.10;;;17.60;99.90;;;;;;5021901;28;20205;-68
2022/07/24 01:17:41;;;;;;;1.53;1.43;;;17.60;99.90;;;;;;5006438;28;20202;-69
2022/07/24 01:20:09;;;;;;;1.10;1.10;;;17.70;99.90;;;;;;5026878;28;20239;-68
2022/07/24 01:22:37;;;;;;;1.87;1.10;;;17.70;99.90;;;;;;5025554;28;20220;-69
2022/07/24 01:25:05;;;;;;;3.10;1.40;;;17.70;99.90;;;;;;5025389;28;20232;-68
2022/07/24 01:27:32;;;;;;;1.97;1.30;;;17.60;99.90;;;;;;5025289;28;20563;-69
2022/07/24 01:29:58;;;;;;;2.10;1.13;;;17.70;99.90;;;;;;5025456;28;20205;-69
2022/07/24 01:32:25;;;;;;;1.40;1.30;;;17.60;99.90;;;;;;5025592;28;20209;-69
2022/07/24 01:34:52;;;;;;;2.17;1.10;;;17.60;99.90;;;;;;5025361;28;20205;-69
2022/07/24 01:37:19;;;;;;;1.77;1.30;;;17.60;99.90;;;;;;5025207;28;20577;-69
2022/07/24 01:39:47;;;;;;;1.10;1.00;;;17.50;99.90;;;;;;5008234;28;20209;-69
2022/07/24 01:42:14;;;;;;;1.40;1.10;;;17.50;99.90;;;;;;5005579;28;20209;-69
2022/07/24 01:44:41;;;;;;;3.23;1.20;;;17.50;99.90;;;;;;5005802;28;20248;-69
2022/07/24 01:47:08;;;;;;;0.90;0.90;;;17.50;99.90;;;;;;5005618;28;20216;-69
2022/07/24 01:49:35;;;;;;;1.23;1.13;;;17.50;99.90;;;;;;5021301;28;20293;-69
2022/07/24 01:52:01;;;;;;;1.97;0.90;;;17.40;99.90;;;;;;5024911;28;20666;-69
2022/07/24 01:54:28;;;;;;;1.23;1.10;;;17.30;99.90;;;;;;5025327;28;20205;-69
2022/07/24 01:56:56;;;;;;;1.60;1.17;;;17.30;99.90;;;;;;5024143;28;20211;-69
2022/07/24 01:59:23;;;;;;;1.03;1.03;;;17.30;99.90;;;;;;5025076;28;20667;-69
2022/07/24 02:01:50;;;;;;;7.20;1.40;;;17.30;99.90;;;;;;5024696;28;20216;-68
2022/07/24 02:04:17;;;;;;;1.70;1.10;;;17.30;99.90;;;;;;5004921;28;20244;-69
2022/07/24 02:06:43;;;;;;;1.80;0.90;;;17.30;99.90;;;;;;5005250;28;20676;-69
2022/07/24 02:09:10;;;;;;;1.13;0.90;;;17.20;99.90;;;;;;5005194;28;20210;-69
2022/07/24 02:11:37;;;;;;;2.47;1.20;;;17.20;99.90;;;;;;5012550;28;20738;-69
2022/07/24 02:14:06;;;;;;;2.43;1.10;;;17.20;99.90;;;;;;5024557;28;20197;-69
2022/07/24 02:16:33;;;;;;;1.10;1.10;;;17.20;99.90;;;;;;5024779;28;20209;-68
2022/07/24 02:19:00;;;;;;;1.40;1.30;;;17.10;99.90;;;;;;5025870;28;20217;-69
2022/07/24 02:21:26;;;;;;;1.10;1.00;;;17.10;99.90;;;;;;5027025;28;20209;-68
2022/07/24 02:23:53;;;;;;;1.33;1.23;;;17.10;99.90;;;;;;5028075;28;20205;-69
2022/07/24 02:26:20;;;;;;;1.30;1.20;;;17.10;99.90;;;;;;5027982;28;20233;-69
2022/07/24 02:28:47;;;;;;;2.27;1.13;;;17.10;99.90;;;;;;5028007;28;20219;-69
2022/07/24 02:31:15;;;;;;;4.20;1.33;;;17.00;99.90;;;;;;5012759;28;20310;-69
2022/07/24 02:33:42;;;;;;;2.53;1.10;;;17.00;99.90;;;;;;5008684;28;20201;-69
2022/07/24 02:36:09;;;;;;;2.23;1.23;;;17.00;99.90;;;;;;5008421;28;20215;-69
2022/07/24 02:38:36;;;;;;;1.20;0.90;;;17.10;99.90;;;;;;5008599;28;20236;-69
2022/07/24 02:41:05;;;;;;;1.83;1.17;;;17.10;99.90;;;;;;5007657;28;20216;-69
2022/07/24 02:43:32;;;;;;;1.00;1.00;;;17.10;99.90;;;;;;5007960;28;20637;-68
2022/07/24 02:45:59;;;;;;;0.90;0.90;;;17.10;99.90;;;;;;5007824;28;20229;-69
2022/07/24 02:48:27;;;;;;;1.40;1.30;;;17.10;99.90;;;;;;5014647;27;20248;-69
2022/07/24 02:50:54;;;;;;;2.93;1.30;;;17.10;99.90;;;;;;5017829;28;20242;-69
2022/07/24 02:53:21;;;;;;;1.43;0.90;;;17.10;99.90;;;;;;5008181;28;20202;-69
2022/07/24 02:55:48;;;;;;;0.80;0.80;;;17.00;99.90;;;;;;5007626;28;20206;-68
2022/07/24 02:58:15;;;;;;;1.33;1.00;;;17.00;99.90;;;;;;5007854;28;20209;-69
2022/07/24 03:00:42;;;;;;;0.97;0.90;;;17.00;99.90;;;;;;5008434;28;20209;-69
2022/07/24 03:03:08;;;;;;;0.97;0.90;;;17.00;99.90;;;;;;5018768;28;20201;-69
2022/07/24 03:05:36;;;;;;;2.53;1.30;;;16.90;99.90;;;;;;5027678;28;20240;-69
2022/07/24 03:08:04;;;;;;;0.90;0.90;;;16.80;99.90;;;;;;5027701;28;20219;-69
2022/07/24 03:10:30;;;;;;;1.40;0.70;;;16.90;99.90;;;;;;5025178;28;20204;-68
2022/07/24 03:12:57;;;;;;;1.20;1.10;;;16.80;99.90;;;;;;5007722;28;20213;-69
2022/07/24 03:15:24;;;;;;;1.20;1.20;;;16.80;99.90;;;;;;5008169;28;20209;-68
2022/07/24 03:17:52;;;;;;;1.23;1.13;;;16.80;99.90;;;;;;5010764;27;20216;-68
2022/07/24 03:20:20;;;;;;;1.10;1.03;;;16.70;99.90;;;;;;5126906;27;20206;-69
2022/07/24 03:22:48;;;;;;;2.17;1.00;;;16.70;99.90;;;;;;5027527;28;20209;-69
2022/07/24 03:25:15;;;;;;;1.53;1.10;;;16.70;99.90;;;;;;5027321;28;20612;-69
2022/07/24 03:27:42;;;;;;;1.43;1.20;;;16.70;99.90;;;;;;5027154;28;20208;-69
2022/07/24 03:30:10;;;;;;;2.97;1.03;;;16.70;99.90;;;;;;5027362;28;20209;-69
2022/07/24 03:32:37;;;;;;;0.90;0.90;;;16.60;99.90;;;;;;5026260;28;20223;-69
2022/07/24 03:35:05;;;;;;;1.40;1.30;;;16.60;99.90;;;;;;5027256;28;20213;-69
2022/07/24 03:37:32;;;;;;;1.30;1.20;;;16.60;99.90;;;;;;5026898;28;20622;-69
2022/07/24 03:40:01;;;;;;;1.30;1.10;;;16.60;99.90;;;;;;5026827;28;20679;-69
2022/07/24 03:42:28;;;;;;;0.80;0.80;;;16.60;99.90;;;;;;5026603;28;20321;-69
2022/07/24 03:44:55;;;;;;;1.17;1.10;;;16.60;99.90;;;;;;5017502;28;20221;-69
2022/07/24 03:47:21;;;;;;;0.97;0.97;;;16.70;99.90;;;;;;5023732;28;20584;-69
2022/07/24 03:49:48;;;;;;;1.23;1.10;;;16.70;99.90;;;;;;5113555;27;20707;-69
2022/07/24 03:52:15;;;;;;;1.67;1.37;;;16.60;99.90;;;;;;5035822;27;20205;-69
2022/07/24 03:54:42;;;;;;;1.00;1.00;;;16.60;99.90;;;;;;5027084;28;20220;-68
2022/07/24 03:57:10;;;;;;;1.23;1.20;;;16.60;99.90;;;;;;5012625;28;20209;-69
2022/07/24 03:59:37;;;;;;;1.20;1.10;;;16.60;99.90;;;;;;5007362;28;20205;-69
2022/07/24 04:02:04;;;;;;;1.23;1.17;;;16.60;99.90;;;;;;5007198;28;20208;-69
2022/07/24 04:04:31;;;;;;;1.03;1.03;;;16.60;99.90;;;;;;5006854;28;20672;-69
2022/07/24 04:06:57;;;;;;;1.73;1.63;;;16.60;99.90;;;;;;5007241;28;20227;-69
2022/07/24 04:09:24;;;;;;;2.27;1.10;;;16.60;99.90;;;;;;5007768;28;20236;-68
2022/07/24 04:11:51;;;;;;;1.20;1.20;;;16.60;99.90;;;;;;5006944;28;20210;-69
2022/07/24 04:14:19;;;;;;;1.37;1.27;;;16.60;99.90;;;;;;5006771;28;20664;-69
2022/07/24 04:16:46;;;;;;;1.13;1.10;;;16.60;99.90;;;;;;5016629;28;20205;-69
2022/07/24 04:19:14;;;;;;;1.40;1.20;;;16.60;99.90;;;;;;5028626;27;20614;-69
2022/07/24 04:21:41;;;;;;;1.30;1.30;;;16.60;99.90;;;;;;5026447;28;20208;-69
2022/07/24 04:24:08;;;;;;;1.10;1.10;;;16.60;99.90;;;;;;5015215;28;20256;-68
2022/07/24 04:26:35;;;;;;;2.07;1.43;;;16.60;99.90;;;;;;5006649;28;20562;-69
2022/07/24 04:29:01;;;;;;;1.40;1.30;;;16.50;99.90;;;;;;5006480;28;21054;-69
2022/07/24 04:31:30;;;;;;;3.00;1.30;;;16.50;99.90;;;;;;5006978;28;20197;-69
2022/07/24 04:33:56;;;;;;;1.07;1.07;;;16.50;99.90;;;;;;5006267;28;20947;-69
2022/07/24 04:36:23;;;;;;;1.73;1.40;;;16.40;99.90;;;;;;5006709;28;20240;-69
2022/07/24 04:38:50;;;;;;;1.60;1.30;;;16.50;99.90;;;;;;5006352;28;20229;-69
2022/07/24 04:41:17;;;;;;;1.33;1.23;;;16.50;99.90;;;;;;5006496;28;20213;-68
2022/07/24 04:43:44;;;;;;;1.80;1.50;;;16.30;99.90;;;;;;5005803;28;20700;-69
2022/07/24 04:46:11;;;;;;;1.37;1.33;;;16.20;99.90;;;;;;5016360;28;20616;-68
2022/07/24 04:48:39;;;;;;;1.87;1.20;;;16.00;99.90;;;;;;5026990;27;20827;-69
2022/07/24 04:51:09;;;;;;;0.93;0.93;;;16.00;99.90;;;;;;5025971;28;20209;-68
2022/07/24 04:53:36;;;;;;;2.20;1.30;;;16.00;99.90;;;;;;5025963;28;20298;-68
2022/07/24 04:56:09;;;;;;;1.30;1.20;;;16.10;99.90;;;;;;5025577;28;20207;-69
2022/07/24 04:58:35;;;;;;;2.20;1.30;;;16.20;99.90;;;;;;5025823;28;20573;-69
2022/07/24 05:01:10;;;;;;;1.27;1.17;;;16.30;99.90;;;;;;5025614;28;20211;-69
2022/07/24 05:03:36;;;;;;;1.37;1.27;;;16.40;99.90;;;;;;5025826;28;20215;-69
2022/07/24 05:06:10;;;;;;;1.93;1.00;;;16.40;99.90;;;;;;5025669;28;20225;-69
2022/07/24 05:08:37;;;;;;;1.30;1.20;;;16.50;99.90;;;;;;5025570;28;20193;-69
2022/07/24 05:11:07;;;;;;;1.87;1.20;;;16.40;99.90;;;;;;5025159;28;20208;-69
2022/07/24 05:13:34;;;;;;;1.20;1.10;;;16.60;99.90;;;;;;5025502;28;20304;-69
2022/07/24 05:16:01;;;;;;;1.30;1.20;;;16.60;99.90;;;;;;5025610;28;20307;-69
2022/07/24 05:18:27;;;;;;;1.23;1.13;;;16.60;99.90;;;;;;5054231;27;20209;-69
2022/07/24 05:20:54;;;;;;;2.83;1.20;;;16.70;99.90;;;;;;5129232;27;20202;-69
2022/07/24 05:23:22;;;;;;;1.90;1.13;;;16.80;99.90;;;;;;5029468;27;20552;-69
2022/07/24 05:25:49;;;;;;;1.00;1.00;;;16.90;99.90;;;;;;5025197;28;20239;-69
2022/07/24 05:28:16;;;;;;;1.10;1.00;;;16.80;99.90;;;;;;5024599;28;20209;-69
2022/07/24 05:30:43;;;;;;;2.70;1.20;;;16.80;99.90;;;;;;5025154;28;20215;-69
2022/07/24 05:33:10;;;;;;;2.17;0.90;;;16.90;99.90;;;;;;5024417;28;20204;-68
2022/07/24 05:35:36;;;;;;;2.87;1.07;;;17.00;99.90;;;;;;5005693;28;20240;-69
2022/07/24 05:38:04;;;;;;;0.97;0.97;;;17.00;99.90;;;;;;5005728;28;20236;-69
2022/07/24 05:40:32;;;;;;;2.83;1.10;;;17.00;99.90;;;;;;5005231;28;20213;-68
2022/07/24 05:42:59;;;;;;;1.23;1.13;;;17.00;99.90;;;;;;5005175;28;20214;-69
2022/07/24 05:45:26;;;;;;;1.57;1.00;;;16.90;99.90;;;;;;5005748;28;20236;-69
2022/07/24 05:47:53;;;;;;;1.47;0.83;;;17.00;99.90;;;;;;5007616;28;20213;-69
2022/07/24 05:50:19;;;;;;;1.20;1.10;;;17.00;99.90;;;;;;5025616;28;20193;-69
2022/07/24 05:52:46;;;;;;;1.87;1.10;;;17.00;99.90;;;;;;5025477;28;20228;-68
2022/07/24 05:55:13;;;;;;;1.20;1.20;;;17.00;99.90;;;;;;5020959;28;20206;-69
2022/07/24 05:57:41;;;;;;;1.40;1.20;;;17.00;99.90;;;;;;5005591;28;20201;-69
2022/07/24 06:00:09;;;;;;;1.20;1.10;;;17.00;99.90;;;;;;5005520;28;20209;-69
2022/07/24 06:02:36;;;;;;;0.97;0.90;;;16.90;99.90;;;;;;5005584;28;20210;-69
2022/07/24 06:05:02;;;;;;;1.57;1.10;;;16.90;99.90;;;;;;5020488;28;20728;-69
2022/07/24 06:07:29;;;;;;;1.20;1.10;;;16.90;99.90;;;;;;5022238;28;20483;-69
2022/07/24 06:09:56;;;;;;;1.20;1.10;;;17.00;99.90;;;;;;5005192;28;20205;-69
2022/07/24 06:12:23;;;;;;;1.00;1.00;;;17.10;99.90;;;;;;5009574;28;20217;-69
2022/07/24 06:14:51;;;;;;;1.73;0.80;;;17.10;99.90;;;;;;5024721;28;20215;-70
2022/07/24 06:17:18;;;;;;;1.97;0.80;;;17.10;99.90;;;;;;5024863;28;20209;-69
2022/07/24 06:19:44;;;;;;;1.00;0.90;;;17.20;99.90;;;;;;5024811;28;20564;-69
2022/07/24 06:22:11;;;;;;;2.00;1.00;;;17.20;99.90;;;;;;5024514;28;20205;-69
2022/07/24 06:24:38;;;;;;;1.77;1.20;;;17.30;99.90;;;;;;5024558;28;20610;-69
2022/07/24 06:27:05;;;;;;;1.43;0.97;;;17.30;99.90;;;;;;5024430;28;20233;-69
2022/07/24 06:29:32;;;;;;;1.27;1.03;;;17.30;99.90;;;;;;5024972;28;20232;-68
2022/07/24 06:32:00;;;;;;;2.10;0.77;;;17.40;99.90;;;;;;5014473;28;20205;-69
2022/07/24 06:34:27;;;;;;;1.00;0.80;;;17.40;99.90;;;;;;5005252;28;20210;-69
2022/07/24 06:36:53;;;;;;;2.10;1.00;;;17.40;99.90;;;;;;5004644;28;20209;-69
2022/07/24 06:39:20;;;;;;;1.10;1.00;;;17.40;99.90;;;;;;5004873;28;20234;-69
2022/07/24 06:41:48;;;;;;;1.23;1.13;;;17.50;99.90;;;;;;5004705;28;20554;-69
2022/07/24 06:44:15;;;;;;;1.10;1.10;;;17.50;99.90;;;;;;5016899;28;20197;-69
2022/07/24 06:46:41;;;;;;;1.77;1.00;;;17.50;99.90;;;;;;5024652;28;20228;-69
2022/07/24 06:49:12;;;;;;;1.00;0.90;;;17.50;99.90;;;;;;5081974;28;20245;-69
2022/07/24 06:51:39;;;;;;;1.23;0.73;;;17.50;99.90;;;;;;5128094;27;20850;-69
2022/07/24 06:54:06;;;;;;;1.10;1.00;;;17.50;99.90;;;;;;5128329;27;20288;-69
2022/07/24 06:56:33;;;;;;;1.27;1.20;;;17.60;99.90;;;;;;5042418;27;20398;-69
2022/07/24 06:59:00;;;;;;;1.40;1.13;;;17.70;99.90;;;;;;5024181;28;20212;-69
2022/07/24 07:01:27;;;;;;;1.40;1.07;;;17.80;99.90;;;;;;5010113;28;20210;-69
2022/07/24 07:03:53;;;;;;;2.60;1.20;;;17.90;99.90;;;;;;5004934;28;20209;-69
2022/07/24 07:06:22;;;;;;;1.43;1.00;;;17.90;99.90;;;;;;5005514;28;20573;-69
2022/07/24 07:08:49;;;;;;;1.77;1.10;;;18.00;99.90;;;;;;5007752;28;20695;-69
2022/07/24 07:11:16;;;;;;;1.50;1.30;;;18.00;99.90;;;;;;5019073;28;20209;-68
2022/07/24 07:13:43;;;;;;;1.60;1.00;;;18.00;99.90;;;;;;5027386;28;20671;-69
2022/07/24 07:16:09;;;;;;;1.33;1.23;;;18.10;99.90;;;;;;5027461;28;20213;-69
2022/07/24 07:18:37;;;;;;;6.50;5.93;;;18.10;99.90;;;;;;5018844;27;20209;-69
2022/07/24 07:21:07;;;;;;;5.43;5.03;;;18.10;99.90;;;;;;5027242;28;20212;-69
2022/07/24 07:23:35;;;;;;;3.20;1.67;;;18.20;99.90;;;;;;5027245;28;20194;-69
2022/07/24 07:26:09;;;;;;;2.40;1.10;;;18.20;99.90;;;;;;5026830;28;20243;-69
2022/07/24 07:28:36;;;;;;;1.20;1.10;;;18.20;99.90;;;;;;5027253;28;20556;-68
2022/07/24 07:31:06;;;;;;;1.07;1.00;;;18.30;99.90;;;;;;5007594;28;20571;-69
2022/07/24 07:33:33;;;;;;;1.80;1.00;;;18.40;99.90;;;;;;5007648;28;20206;-69
2022/07/24 07:36:01;;;;;;;1.07;1.07;;;18.40;99.90;;;;;;5007359;28;20220;-69
2022/07/24 07:38:27;;;;;;;1.67;1.10;;;18.50;99.90;;;;;;5007209;28;20699;-69
2022/07/24 07:40:56;;;;;;;1.40;1.27;;;18.60;99.90;;;;;;5009749;28;20205;-69
2022/07/24 07:43:22;;;;;;;1.10;0.80;;;18.60;99.90;;;;;;5026751;28;20216;-69
2022/07/24 07:45:49;;;;;;;1.67;0.83;;;18.60;99.90;;;;;;5026666;28;20219;-69
2022/07/24 07:48:17;;;;;;;1.13;0.90;;;18.70;99.90;;;;;;5026785;28;20328;-69
2022/07/24 07:50:47;;;;;;;3.77;1.07;;;18.70;99.90;;;;;;5027240;28;20814;-69
2022/07/24 07:53:13;;;;;;;1.60;1.00;;;18.80;99.90;;;;;;5026801;28;20197;-69
2022/07/24 07:55:40;;;;;;;1.40;0.80;;;18.80;99.90;;;;;;5026606;28;20595;-68
2022/07/24 07:58:09;;;;;;;1.33;1.23;;;18.90;99.90;;;;;;5026597;28;20227;-69
2022/07/24 08:00:36;;;;;;;1.47;1.10;;;18.90;99.90;;;;;;5026695;28;20212;-69
2022/07/24 08:03:04;;;;;;;0.80;0.80;;;19.00;99.90;;;;;;5024663;28;20558;-69
2022/07/24 08:05:31;;;;;;;1.33;0.90;;;19.10;99.90;;;;;;5026754;28;20212;-69
2022/07/24 08:07:57;;;;;;;1.60;1.10;;;19.20;99.90;;;;;;5026470;28;20234;-69
2022/07/24 08:10:24;;;;;;;1.13;0.90;;;19.20;99.90;;;;;;5025830;28;20209;-69
2022/07/24 08:12:51;;;;;;;3.60;1.20;;;19.30;99.90;;;;;;5016436;28;20205;-69
2022/07/24 08:15:20;;;;;;;2.20;1.50;;;19.40;99.90;;;;;;5026866;28;20211;-69
2022/07/24 08:17:51;;;;;;;0.90;0.90;;;19.40;99.90;;;;;;5025686;28;20869;-68
2022/07/24 08:20:19;;;;;;;0.70;0.70;;;19.40;99.90;;;;;;5006731;28;20649;-69
2022/07/24 08:22:46;;;;;;;1.40;1.00;;;19.50;99.90;;;;;;5006704;28;20210;-69
2022/07/24 08:25:13;;;;;;;1.50;0.93;;;19.60;99.90;;;;;;5006623;28;20197;-69
2022/07/24 08:27:40;;;;;;;1.73;1.00;;;19.70;99.90;;;;;;5006562;28;20602;-69
2022/07/24 08:30:08;;;;;;;2.87;1.07;;;19.70;99.90;;;;;;5006492;28;20212;-68
2022/07/24 08:32:37;;;;;;;1.23;1.03;;;19.80;99.90;;;;;;5007380;28;20198;-68
2022/07/24 08:35:05;;;;;;;1.10;1.00;;;19.80;99.90;;;;;;5006638;28;20559;-69
2022/07/24 08:37:36;;;;;;;2.10;0.90;;;19.90;99.90;;;;;;5006539;28;20233;-69
2022/07/24 08:40:03;;;;;;;1.53;1.00;;;20.00;99.90;;;;;;5006241;28;20209;-69
2022/07/24 08:42:30;;;;;;;1.57;1.20;;;20.00;99.90;;;;;;5009597;28;20674;-69
2022/07/24 08:44:57;;;;;;;1.37;1.10;;;20.10;99.90;;;;;;5025839;28;20652;-69
2022/07/24 08:47:26;;;;;;;1.67;1.13;;;20.20;99.90;;;;;;5026145;28;20242;-68
2022/07/24 08:49:55;;;;;;;2.13;1.23;;;20.20;99.90;;;;;;5115523;27;20233;-69
2022/07/24 08:52:23;;;;;;;3.07;1.30;;;20.30;99.90;;;;;;5129907;27;20201;-69
2022/07/24 08:54:50;;;;;;;2.40;1.17;;;20.40;99.90;;;;;;5102513;27;20209;-68
2022/07/24 08:57:17;;;;;;;1.87;1.30;;;20.50;99.90;;;;;;5025640;28;20265;-68
2022/07/24 08:59:43;;;;;;;1.40;1.30;;;20.50;99.90;;;;;;5025994;28;20212;-69
2022/07/24 09:02:10;;;;;;;1.20;1.07;;;20.50;99.90;;;;;;5025774;28;20204;-69
2022/07/24 09:04:39;;;;;;;1.73;0.90;;;20.60;99.90;;;;;;5025872;28;20205;-68
2022/07/24 09:07:09;;;;;;;1.47;1.00;;;20.70;99.90;;;;;;5024405;28;20237;-69
2022/07/24 09:09:36;;;;;;;1.83;1.03;;;20.70;99.90;;;;;;5025760;28;20197;-69
2022/07/24 09:12:05;;;;;;;1.30;1.10;;;20.80;99.90;;;;;;5025474;28;20220;-69
2022/07/24 09:14:33;;;;;;;1.60;1.07;;;20.80;99.90;;;;;;5025661;28;20213;-69
2022/07/24 09:17:06;;;;;;;1.40;1.30;;;20.90;99.90;;;;;;5015011;28;20209;-69
2022/07/24 09:19:49;;;;;;;1.60;1.30;;;20.90;99.90;;;;;;5020711;28;20212;-68
2022/07/24 09:22:33;;;;;;;1.20;1.20;;;21.00;99.90;;;;;;5025423;28;20280;-69
2022/07/24 09:25:12;;;;;;;1.40;1.30;;;21.00;99.90;;;;;;5025333;28;20236;-69
2022/07/24 09:27:40;;;;;;;2.43;1.33;;;21.10;99.90;;;;;;5025147;28;20220;-69
2022/07/24 09:30:09;;;;;;;1.80;1.13;;;21.20;99.90;;;;;;5006093;28;20761;-69
2022/07/24 09:32:37;;;;;;;1.67;1.30;;;21.30;99.90;;;;;;5005501;28;20724;-69
2022/07/24 09:35:04;;;;;;;1.88;1.20;;;21.40;99.90;;;;;;5005566;28;20209;-69
2022/07/24 09:37:33;;;;;;;1.20;1.20;;;21.50;99.90;;;;;;5016484;28;20231;-69
2022/07/24 09:40:11;;;;;;;1.60;1.20;;;21.70;99.90;;;;;;5013274;28;20209;-69
2022/07/24 09:42:41;;;;;;;1.60;1.23;;;21.80;99.90;;;;;;5005386;28;20210;-69
2022/07/24 09:45:12;;;;;;;2.73;1.30;;;21.80;99.70;;;;;;5005380;28;20205;-68
2022/07/24 09:47:39;;;;;;;1.73;1.00;;;21.80;99.50;;;;;;5005526;28;20229;-69
2022/07/24 09:50:15;;;;;;;1.27;1.17;;;21.80;99.70;;;;;;5023379;28;20241;-69
2022/07/24 09:52:44;;;;;;;0.85;0.85;;;21.90;99.60;;;;;;5024606;28;20200;-69
2022/07/24 09:55:21;;;;;;;2.88;1.40;;;22.00;98.70;;;;;;5024765;28;20205;-69
2022/07/24 09:57:49;;;;;;;1.48;1.38;;;22.10;98.90;;;;;;5024909;28;20251;-69
2022/07/24 10:00:17;;;;;;;1.45;1.35;;;22.10;99.00;;;;;;5024980;28;20581;-69
2022/07/24 10:02:45;;;;;;;1.50;1.40;;;22.30;98.20;;;;;;5010198;28;20672;-69
2022/07/24 10:05:13;;;;;;;1.10;1.10;;;22.30;98.20;;;;;;5007263;28;20198;-69
2022/07/24 10:07:43;;;;;;;1.23;1.13;;;22.40;97.80;;;;;;5009409;28;20627;-69
2022/07/24 10:10:11;;;;;;;1.60;1.08;;;22.50;98.00;;;;;;5004972;28;20680;-68
2022/07/24 10:12:38;;;;;;;1.40;1.30;;;22.60;98.70;;;;;;5005045;28;20213;-69
2022/07/24 10:15:07;;;;;;;1.40;1.30;;;22.70;98.20;;;;;;5005069;28;20247;-69
2022/07/24 10:17:58;;;;;;;1.45;1.35;;;22.70;97.80;;;;;;5018151;28;20682;-69
2022/07/24 10:20:38;;;;;;;2.63;1.40;;;22.80;97.60;;;;;;5005140;28;20214;-69
2022/07/24 10:23:07;;;;;;;3.13;1.27;;;22.80;97.30;;;;;;5005153;28;20205;-69
2022/07/24 10:25:52;;;;;;;1.50;1.40;;;22.90;97.40;;;;;;5005013;28;20208;-69
2022/07/24 10:28:40;;;;;;;2.53;1.33;;;22.90;96.70;;;;;;5005129;28;20248;-69
2022/07/24 10:31:08;;;;;;;1.75;1.52;;;22.90;97.30;;;;;;5007053;28;20759;-69
2022/07/24 10:33:38;;;;;;;1.05;1.05;;;23.00;96.70;;;;;;5005256;28;20212;-69
2022/07/24 10:36:18;;;;;;;1.60;1.50;;;23.10;96.30;;;;;;5006148;28;20205;-69
2022/07/24 10:38:55;;;;;;;1.83;1.40;;;23.20;96.20;;;;;;5024767;28;20229;-69
2022/07/24 10:41:26;;;;;;;2.30;1.38;;;23.30;96.40;;;;;;5020096;28;20287;-68
2022/07/24 10:44:16;;;;;;;1.20;1.20;;;23.40;96.20;;;;;;5013453;28;20193;-69
2022/07/24 10:47:01;;;;;;;1.77;1.60;;;23.60;96.50;;;;;;5011308;28;20229;-69
2022/07/24 10:49:45;;;;;;;2.80;1.73;;;23.70;96.20;;;;;;5025471;27;20239;-68
2022/07/24 10:52:22;;;;;;;1.50;1.40;;;23.80;95.60;;;;;;5027870;28;20195;-68
2022/07/24 10:55:20;;;;;;;1.60;1.50;;;23.80;95.30;;;;;;5027887;28;20658;-69
2022/07/24 10:57:55;;;;;;;1.60;1.50;;;23.90;95.60;;;;;;5023688;28;20976;-68
2022/07/24 11:00:23;;;;;;;1.80;1.70;;;23.90;95.60;;;;;;5010956;28;20193;-68
2022/07/24 11:02:57;;;;;;;3.08;1.80;;;24.00;95.60;;;;;;5022986;28;20198;-68
2022/07/24 11:05:26;;;;;;;1.58;1.48;;;24.10;95.20;;;;;;5014727;28;20231;-68
2022/07/24 11:08:36;;;;;;;2.80;1.77;;;24.10;94.80;;;;;;5019910;28;20239;-68
2022/07/24 11:11:12;;;;;;;2.90;1.95;;;24.30;95.70;;;;;;5012499;28;20185;-68
2022/07/24 11:13:50;;;;;;;2.95;1.80;;;24.40;95.10;;;;;;5027559;28;20209;-68
2022/07/24 11:16:30;;;;;;;4.90;1.80;;;24.60;95.20;;;;;;5027059;28;20208;-68
2022/07/24 11:19:29;;;;;;;2.13;1.92;;;24.70;94.80;;;;;;5077569;27;20208;-69
2022/07/24 11:22:08;;;;;;;1.58;1.48;;;24.80;94.70;;;;;;5131665;27;20689;-69
2022/07/24 11:24:34;;;;;;;1.40;1.40;;;24.90;94.50;;;;;;5054978;27;20196;-68
2022/07/24 11:27:08;;;;;;;2.00;1.42;;;25.00;94.00;;;;;;5027016;28;20295;-69
2022/07/24 11:29:36;;;;;;;3.08;1.52;;;25.10;93.90;;;;;;5027298;28;20193;-68
2022/07/24 11:32:07;;;;;;;1.40;1.30;;;25.20;93.90;;;;;;5027312;28;20205;-68
2022/07/24 11:34:35;;;;;;;3.17;1.85;;;25.30;93.80;;;;;;5027006;28;20644;-69
2022/07/24 11:37:03;;;;;;;1.65;1.38;;;25.40;93.90;;;;;;5015798;28;20237;-68
2022/07/24 11:39:31;;;;;;;2.28;1.60;;;25.60;93.30;;;;;;5009183;28;20201;-68
2022/07/24 11:41:59;;;;;;;1.45;1.40;;;25.60;92.90;;;;;;5007160;28;20209;-69
2022/07/24 11:44:30;;;;;;;1.63;1.52;;;25.80;93.30;;;;;;5007530;28;20215;-68
2022/07/24 11:46:57;;;;;;;1.50;1.40;;;25.80;93.00;;;;;;5007102;28;20655;-69
2022/07/24 11:49:25;;;;;;;4.28;1.60;;;25.90;93.20;;;;;;5019566;28;20272;-69
2022/07/24 11:51:54;;;;;;;1.63;1.52;;;26.10;93.50;;;;;;5026559;28;20201;-69
2022/07/24 11:54:23;;;;;;;1.63;1.50;;;26.30;92.90;;;;;;5026004;28;20217;-69
2022/07/24 11:56:50;;;;;;;1.50;1.40;;;26.40;92.50;;;;;;5015809;28;20340;-69
2022/07/24 11:59:24;;;;;;;3.83;1.63;;;26.50;93.30;;;;;;5007442;28;20241;-68
2022/07/24 12:01:56;;;;;;;1.63;1.48;;;26.70;92.70;;;;;;5007052;28;20209;-68
2022/07/24 12:04:23;;;;;;;1.48;1.45;;;26.90;92.20;;;;;;5006842;28;20205;-69
2022/07/24 12:06:50;;;;;;;1.67;1.25;;;26.90;92.40;;;;;;5017151;28;20233;-69
2022/07/24 12:09:17;;;;;;;1.40;1.33;;;27.10;93.00;;;;;;5026756;28;20236;-69
2022/07/24 12:11:44;;;;;;;1.85;1.45;;;27.20;93.20;;;;;;5026419;28;20205;-69
2022/07/24 12:14:15;;;;;;;2.03;1.33;;;27.20;92.60;;;;;;5023782;28;20550;-69
2022/07/24 12:16:43;;;;;;;1.52;1.30;;;27.30;92.70;;;;;;5006644;28;20720;-69
2022/07/24 12:19:16;;;;;;;4.13;1.42;;;27.30;92.20;;;;;;5078605;27;20653;-69
2022/07/24 12:21:44;;;;;;;1.83;1.38;;;27.40;91.70;;;;;;5130508;27;20205;-68
2022/07/24 12:24:11;;;;;;;1.95;1.33;;;27.50;91.80;;;;;;5130696;27;20201;-69
2022/07/24 12:26:50;;;;;;;1.60;1.50;;;27.70;92.40;;;;;;5130283;27;20582;-68
2022/07/24 12:29:17;;;;;;;1.30;1.20;;;27.80;91.20;;;;;;5083440;27;20266;-69
2022/07/24 12:31:44;;;;;;;1.58;1.40;;;27.80;90.80;;;;;;5006880;28;20205;-68
2022/07/24 12:34:11;;;;;;;1.67;1.58;;;27.90;91.10;;;;;;5006655;28;20214;-69
2022/07/24 12:36:40;;;;;;;1.40;1.30;;;27.90;91.40;;;;;;5006197;28;20217;-69
2022/07/24 12:39:07;;;;;;;4.63;1.50;;;27.90;91.40;;;;;;5009961;28;20718;-69
2022/07/24 12:41:44;;;;;;;1.60;1.40;;;27.90;91.70;;;;;;5026066;28;20287;-69
2022/07/24 12:44:11;;;;;;;3.05;1.30;;;28.00;91.40;;;;;;5026313;28;20201;-69
2022/07/24 12:46:40;;;;;;;1.23;1.23;;;28.00;90.20;;;;;;5026298;28;20589;-69
2022/07/24 12:49:08;;;;;;;1.27;1.27;;;28.10;89.40;;;;;;5075288;27;20244;-69
2022/07/24 12:51:50;;;;;;;1.27;1.20;;;28.30;89.00;;;;;;5097443;27;20201;-68
2022/07/24 12:54:19;;;;;;;1.35;1.30;;;28.50;89.50;;;;;;5026703;28;20547;-68
2022/07/24 12:56:46;;;;;;;3.60;1.30;;;28.50;87.60;;;;;;5025529;28;20205;-69